Time;durP1;ratioP1;P1;durP2;ratioP2;P2;SDS_P1;SDS_P2;PMS_P1;PMS_P2;Temp;Humidity;BMP_temperature;BMP_pressure;BME280_temperature;BME280_humidity;BME280_pressure;Samples;Min_cycle;Max_cycle;Signal;HPM_P1;HPM_P2
2021/09/13 00:01:16;;;;;;;2.90;2.38;;;13.80;99.90;;;;;;5057749;28;20469;-86
2021/09/13 00:03:45;;;;;;;3.42;2.38;;;13.80;99.90;;;;;;5065529;28;20381;-85
2021/09/13 00:06:14;;;;;;;3.00;2.33;;;13.80;99.90;;;;;;5053537;28;20029;-86
2021/09/13 00:08:47;;;;;;;3.08;2.17;;;13.70;99.90;;;;;;5069954;28;20067;-86
2021/09/13 00:11:13;;;;;;;3.58;2.40;;;13.70;99.90;;;;;;5070235;28;20053;-87
2021/09/13 00:13:39;;;;;;;4.35;2.33;;;13.70;99.90;;;;;;5061385;28;20033;-87
2021/09/13 00:16:06;;;;;;;3.40;2.65;;;13.70;99.90;;;;;;5061401;28;20238;-86
2021/09/13 00:18:32;;;;;;;3.55;2.53;;;13.70;99.90;;;;;;5053436;28;20031;-87
2021/09/13 00:20:59;;;;;;;3.88;2.67;;;13.60;99.90;;;;;;5069818;28;20082;-87
2021/09/13 00:23:26;;;;;;;4.45;2.83;;;13.60;99.90;;;;;;5059133;28;20034;-87
2021/09/13 00:25:55;;;;;;;3.53;2.83;;;13.60;99.90;;;;;;5063763;28;20131;-87
2021/09/13 00:28:31;;;;;;;3.60;2.80;;;13.60;99.90;;;;;;5066962;28;20028;-87
2021/09/13 00:31:05;;;;;;;6.55;3.13;;;13.60;99.90;;;;;;5056809;28;20461;-86
2021/09/13 00:33:41;;;;;;;4.70;3.17;;;13.60;99.90;;;;;;5066987;28;20384;-88
2021/09/13 00:36:16;;;;;;;4.03;2.75;;;13.60;99.90;;;;;;5065794;28;20032;-88
2021/09/13 00:38:54;;;;;;;2.97;2.67;;;13.50;99.90;;;;;;5056368;28;20025;-87
2021/09/13 00:41:20;;;;;;;3.88;2.33;;;13.50;99.90;;;;;;5068377;28;20020;-87
2021/09/13 00:43:48;;;;;;;3.88;2.88;;;13.50;99.90;;;;;;5062192;28;20058;-87
2021/09/13 00:46:14;;;;;;;4.88;2.67;;;13.50;99.90;;;;;;5060498;28;20028;-87
2021/09/13 00:48:40;;;;;;;4.38;3.42;;;13.50;99.90;;;;;;5054162;28;20021;-87
2021/09/13 00:51:06;;;;;;;4.72;3.08;;;13.40;99.90;;;;;;5069463;28;20031;-86
2021/09/13 00:53:36;;;;;;;4.68;3.10;;;13.40;99.90;;;;;;5043050;28;20179;-86
2021/09/13 00:56:13;;;;;;;5.45;3.17;;;13.40;99.90;;;;;;5062189;28;20465;-87
2021/09/13 00:58:40;;;;;;;5.82;2.95;;;13.40;99.90;;;;;;5068695;28;20415;-87
2021/09/13 01:01:09;;;;;;;6.03;3.20;;;13.40;99.90;;;;;;5055974;28;20031;-87
2021/09/13 01:03:41;;;;;;;5.07;3.60;;;13.40;99.90;;;;;;5072659;28;20467;-87
2021/09/13 01:06:08;;;;;;;4.30;3.53;;;13.40;99.90;;;;;;5060813;28;20495;-87
2021/09/13 01:08:34;;;;;;;4.47;3.53;;;13.40;99.90;;;;;;5069108;28;20028;-88
2021/09/13 01:11:01;;;;;;;5.70;3.20;;;13.40;99.90;;;;;;5055364;28;20432;-87
2021/09/13 01:13:27;;;;;;;4.55;3.80;;;13.40;99.90;;;;;;5066616;28;20045;-86
2021/09/13 01:15:54;;;;;;;4.72;3.35;;;13.40;99.90;;;;;;5062395;28;20128;-86
2021/09/13 01:18:20;;;;;;;5.88;3.63;;;13.30;99.90;;;;;;5059119;28;20122;-87
2021/09/13 01:20:47;;;;;;;4.50;3.83;;;13.30;99.90;;;;;;5069029;28;20016;-86
2021/09/13 01:23:36;;;;;;;3.75;3.33;;;13.30;99.90;;;;;;5056634;28;20047;-87
2021/09/13 01:26:06;;;;;;;3.70;3.05;;;13.30;99.90;;;;;;5061221;28;20037;-87
2021/09/13 01:28:33;;;;;;;5.70;3.72;;;13.20;99.90;;;;;;5051526;28;20024;-87
2021/09/13 01:31:01;;;;;;;4.30;3.80;;;13.20;99.90;;;;;;5055650;28;20017;-87
2021/09/13 01:33:31;;;;;;;4.72;3.67;;;13.10;99.90;;;;;;5065940;28;20021;-87
2021/09/13 01:35:57;;;;;;;4.35;3.47;;;13.20;99.90;;;;;;5052092;28;20044;-86
2021/09/13 01:38:26;;;;;;;4.22;3.40;;;13.10;99.90;;;;;;5052278;28;20017;-87
2021/09/13 01:40:52;;;;;;;4.75;3.53;;;13.10;99.90;;;;;;5068650;28;20461;-87
2021/09/13 01:43:19;;;;;;;4.70;3.85;;;13.10;99.90;;;;;;5057010;28;20103;-87
2021/09/13 01:45:45;;;;;;;3.85;3.33;;;13.10;99.90;;;;;;5063297;28;20124;-87
2021/09/13 01:48:12;;;;;;;5.13;3.60;;;13.00;99.90;;;;;;5068645;28;20366;-87
2021/09/13 01:50:40;;;;;;;5.60;3.85;;;13.00;99.90;;;;;;5058725;28;20062;-87
2021/09/13 01:53:07;;;;;;;4.38;3.47;;;13.00;99.90;;;;;;5068660;28;20477;-87
2021/09/13 01:55:34;;;;;;;4.80;3.50;;;13.00;99.90;;;;;;5041890;28;20037;-86
2021/09/13 01:58:02;;;;;;;5.43;4.07;;;13.00;99.90;;;;;;5060627;28;20401;-87
2021/09/13 02:00:31;;;;;;;4.20;3.63;;;13.00;99.90;;;;;;5065875;28;20029;-87
2021/09/13 02:02:57;;;;;;;4.22;3.70;;;12.90;99.90;;;;;;5069773;28;20036;-86
2021/09/13 02:05:24;;;;;;;4.28;3.67;;;12.90;99.90;;;;;;5057703;28;20119;-87
2021/09/13 02:07:50;;;;;;;5.38;3.90;;;12.90;99.90;;;;;;5063573;28;20025;-88
2021/09/13 02:10:17;;;;;;;5.97;4.38;;;12.90;99.90;;;;;;5064670;28;20077;-86
2021/09/13 02:12:43;;;;;;;4.57;4.03;;;12.80;99.90;;;;;;5055362;28;20025;-86
2021/09/13 02:15:10;;;;;;;4.88;4.03;;;12.80;99.90;;;;;;5067945;28;20488;-87
2021/09/13 02:17:36;;;;;;;4.30;3.90;;;12.80;99.90;;;;;;5057981;28;20024;-87
2021/09/13 02:20:03;;;;;;;4.60;3.75;;;12.90;99.90;;;;;;5060849;28;20028;-87
2021/09/13 02:22:32;;;;;;;4.93;4.07;;;12.90;99.90;;;;;;5066528;28;20086;-87
2021/09/13 02:25:02;;;;;;;5.13;4.10;;;12.80;99.90;;;;;;5036483;28;20029;-87
2021/09/13 02:27:28;;;;;;;6.22;4.18;;;12.80;99.90;;;;;;5057942;28;20114;-87
2021/09/13 02:29:54;;;;;;;5.70;4.55;;;12.80;99.90;;;;;;5061144;28;20043;-87
2021/09/13 02:32:22;;;;;;;5.10;3.78;;;12.80;99.90;;;;;;5064553;28;20104;-87
2021/09/13 02:34:48;;;;;;;4.78;4.13;;;12.80;99.90;;;;;;5055838;28;20473;-87
2021/09/13 02:37:15;;;;;;;5.25;3.80;;;12.70;99.90;;;;;;5055831;28;20032;-87
2021/09/13 02:39:41;;;;;;;5.97;4.00;;;12.70;99.90;;;;;;5064358;28;20013;-87
2021/09/13 02:42:10;;;;;;;4.65;3.83;;;12.70;99.90;;;;;;5034710;28;20087;-86
2021/09/13 02:44:36;;;;;;;4.20;3.58;;;12.70;99.90;;;;;;5068714;28;20042;-87
2021/09/13 02:47:06;;;;;;;4.22;3.70;;;12.70;99.90;;;;;;5054592;28;20636;-86
2021/09/13 02:49:35;;;;;;;5.63;4.05;;;12.60;99.90;;;;;;5064886;28;20469;-86
2021/09/13 02:52:01;;;;;;;4.28;3.63;;;12.60;99.90;;;;;;5062180;28;20115;-86
2021/09/13 02:54:27;;;;;;;6.07;3.92;;;12.60;99.90;;;;;;5056691;28;20489;-87
2021/09/13 02:56:54;;;;;;;5.00;3.90;;;12.70;99.90;;;;;;5069155;28;20083;-87
2021/09/13 02:59:20;;;;;;;5.50;3.47;;;12.60;99.90;;;;;;5066020;28;20108;-87
2021/09/13 03:01:47;;;;;;;4.03;3.22;;;12.60;99.90;;;;;;5060659;28;20085;-86
2021/09/13 03:04:13;;;;;;;4.05;3.65;;;12.60;99.90;;;;;;5062457;28;20116;-87
2021/09/13 03:06:40;;;;;;;5.68;4.30;;;12.60;99.90;;;;;;5070508;28;20025;-86
2021/09/13 03:09:06;;;;;;;4.63;3.65;;;12.60;99.90;;;;;;5058242;28;20021;-86
2021/09/13 03:11:34;;;;;;;4.72;3.83;;;12.60;99.90;;;;;;5068607;28;20017;-85
2021/09/13 03:14:02;;;;;;;7.13;3.80;;;12.50;99.90;;;;;;5065134;28;20453;-86
2021/09/13 03:16:29;;;;;;;5.60;3.63;;;12.60;99.90;;;;;;5075328;28;20032;-86
2021/09/13 03:18:56;;;;;;;4.78;3.58;;;12.50;99.90;;;;;;5057877;28;20457;-86
2021/09/13 03:21:23;;;;;;;4.75;3.70;;;12.50;99.90;;;;;;5069184;28;20461;-87
2021/09/13 03:23:50;;;;;;;4.80;3.20;;;12.50;99.90;;;;;;5046975;28;20550;-87
2021/09/13 03:26:16;;;;;;;4.13;3.33;;;12.50;99.90;;;;;;5062974;28;20115;-86
2021/09/13 03:28:42;;;;;;;5.00;3.45;;;12.50;99.90;;;;;;5075110;28;20032;-87
2021/09/13 03:31:08;;;;;;;4.50;3.33;;;12.50;99.90;;;;;;5053988;28;20017;-87
2021/09/13 03:33:35;;;;;;;5.47;3.63;;;12.50;99.90;;;;;;5057772;28;20074;-87
2021/09/13 03:36:02;;;;;;;4.30;3.20;;;12.50;99.90;;;;;;5063153;28;20492;-87
2021/09/13 03:38:28;;;;;;;3.42;2.90;;;12.50;99.90;;;;;;5068905;28;20032;-87
2021/09/13 03:40:55;;;;;;;3.75;2.97;;;12.50;99.90;;;;;;5072608;28;20448;-86
2021/09/13 03:43:21;;;;;;;3.53;2.60;;;12.40;99.90;;;;;;5059414;28;20028;-87
2021/09/13 03:45:47;;;;;;;4.00;3.15;;;12.50;99.90;;;;;;5065162;28;20047;-87
2021/09/13 03:48:13;;;;;;;3.40;2.80;;;12.50;99.90;;;;;;5066636;28;20523;-87
2021/09/13 03:50:40;;;;;;;3.90;3.00;;;12.40;99.90;;;;;;5074027;28;20032;-87
2021/09/13 03:53:07;;;;;;;3.20;2.80;;;12.40;99.90;;;;;;5057135;28;20025;-86
2021/09/13 03:55:35;;;;;;;3.50;2.60;;;12.40;99.90;;;;;;5066557;28;20120;-85
2021/09/13 03:58:05;;;;;;;3.13;2.40;;;12.40;99.90;;;;;;5064207;28;20401;-86
2021/09/13 04:00:31;;;;;;;3.42;2.33;;;12.40;99.90;;;;;;5058808;28;20013;-87
2021/09/13 04:02:57;;;;;;;2.33;2.10;;;12.40;99.90;;;;;;5070348;28;20036;-86
2021/09/13 04:05:25;;;;;;;3.38;2.30;;;12.40;99.90;;;;;;5059327;28;20024;-87
2021/09/13 04:11:23;;;;;;;2.78;2.17;;;12.40;99.90;;;;;;5067934;28;20093;-86
2021/09/13 04:13:14;;;;;;;3.97;2.60;;;12.50;99.90;;;;;;5053748;28;20063;-86
2021/09/13 04:15:42;;;;;;;3.55;2.80;;;12.50;99.90;;;;;;5065420;28;20029;-86
2021/09/13 04:18:09;;;;;;;3.83;2.90;;;12.60;99.90;;;;;;5066192;28;20082;-85
2021/09/13 04:20:36;;;;;;;3.70;3.08;;;12.70;99.90;;;;;;5057880;28;20017;-86
2021/09/13 04:23:02;;;;;;;3.72;2.90;;;12.70;99.90;;;;;;5069288;28;20072;-87
2021/09/13 04:25:29;;;;;;;4.13;2.60;;;12.80;99.90;;;;;;5059434;28;20488;-86
2021/09/13 04:27:55;;;;;;;2.85;2.10;;;12.80;99.90;;;;;;5063242;28;20032;-87
2021/09/13 04:30:23;;;;;;;4.60;2.50;;;12.80;99.90;;;;;;5066912;28;20025;-86
2021/09/13 04:32:49;;;;;;;3.50;2.60;;;12.80;99.90;;;;;;5056633;28;20061;-86
2021/09/13 04:35:15;;;;;;;3.88;2.75;;;12.80;99.90;;;;;;5068619;28;20021;-86
2021/09/13 04:37:42;;;;;;;3.78;2.65;;;12.80;99.90;;;;;;5061270;28;20013;-87
2021/09/13 04:40:09;;;;;;;2.72;2.22;;;12.80;99.90;;;;;;5060798;28;20036;-87
2021/09/13 04:42:35;;;;;;;3.10;2.33;;;12.90;99.90;;;;;;5051785;28;20036;-87
2021/09/13 04:45:03;;;;;;;3.10;2.65;;;12.90;99.90;;;;;;5054017;28;20491;-87
2021/09/13 04:47:29;;;;;;;2.90;2.33;;;12.90;99.90;;;;;;5058531;28;20388;-88
2021/09/13 04:49:55;;;;;;;3.03;2.45;;;12.80;99.90;;;;;;5062756;28;20025;-87
2021/09/13 04:52:21;;;;;;;2.53;2.22;;;12.80;99.90;;;;;;5065543;28;20039;-87
2021/09/13 04:54:48;;;;;;;4.07;2.83;;;12.70;99.90;;;;;;5055600;28;20037;-86
2021/09/13 04:57:14;;;;;;;3.15;2.33;;;12.70;99.90;;;;;;5067929;28;20476;-86
2021/09/13 04:59:42;;;;;;;3.22;2.50;;;12.60;99.90;;;;;;5060728;28;20044;-87
2021/09/13 05:02:08;;;;;;;3.65;2.50;;;12.60;99.90;;;;;;5071359;28;20036;-86
2021/09/13 05:04:36;;;;;;;4.45;2.42;;;12.50;99.90;;;;;;5056757;28;20028;-87
2021/09/13 05:07:02;;;;;;;3.58;2.50;;;12.50;99.90;;;;;;5068676;28;20384;-87
2021/09/13 05:09:28;;;;;;;2.80;1.90;;;12.50;99.90;;;;;;5058471;28;20021;-87
2021/09/13 05:11:56;;;;;;;2.90;2.08;;;12.40;99.90;;;;;;5061456;28;20029;-86
2021/09/13 05:14:22;;;;;;;2.60;1.95;;;12.50;99.90;;;;;;5065766;28;20032;-87
2021/09/13 05:16:49;;;;;;;2.95;2.00;;;12.40;99.90;;;;;;5055621;28;20022;-87
2021/09/13 05:19:17;;;;;;;2.50;1.80;;;12.40;99.90;;;;;;5069696;28;20412;-88
2021/09/13 05:21:44;;;;;;;2.17;1.98;;;12.40;99.90;;;;;;5060367;28;20025;-87
2021/09/13 05:24:11;;;;;;;3.60;2.28;;;12.40;99.90;;;;;;5059562;28;20033;-87
2021/09/13 05:26:40;;;;;;;3.13;2.33;;;12.40;99.90;;;;;;5066908;28;20055;-88
2021/09/13 05:29:08;;;;;;;2.75;1.92;;;12.40;99.90;;;;;;5055380;28;20090;-87
2021/09/13 05:31:35;;;;;;;2.28;1.75;;;12.40;99.90;;;;;;5066183;28;20373;-86
2021/09/13 05:34:02;;;;;;;3.88;1.85;;;12.40;99.90;;;;;;5062818;28;20040;-87
2021/09/13 05:36:29;;;;;;;2.72;1.85;;;12.50;99.90;;;;;;5057137;28;20021;-88
2021/09/13 05:38:56;;;;;;;3.10;1.90;;;12.50;99.90;;;;;;5068380;28;20027;-88
2021/09/13 05:41:22;;;;;;;3.28;2.20;;;12.50;99.90;;;;;;5035226;28;20087;-87
2021/09/13 05:43:50;;;;;;;2.53;2.00;;;12.60;99.90;;;;;;5060418;28;20425;-88
2021/09/13 05:46:16;;;;;;;4.15;2.10;;;12.60;99.90;;;;;;5058811;28;20063;-87
2021/09/13 05:48:43;;;;;;;3.90;2.00;;;12.60;99.90;;;;;;5067830;28;20392;-87
2021/09/13 05:51:10;;;;;;;3.35;2.72;;;12.70;99.90;;;;;;5056373;28;20120;-87
2021/09/13 05:53:37;;;;;;;2.80;2.03;;;12.70;99.90;;;;;;5059165;28;20024;-88
2021/09/13 05:56:04;;;;;;;3.30;2.50;;;12.70;99.90;;;;;;5060320;28;20048;-87
2021/09/13 05:58:31;;;;;;;3.28;2.00;;;12.70;99.90;;;;;;5084696;28;20040;-87
2021/09/13 06:00:59;;;;;;;5.70;2.90;;;12.70;99.90;;;;;;5075775;28;20476;-87
2021/09/13 06:03:26;;;;;;;2.88;2.15;;;12.80;99.90;;;;;;5069197;28;20017;-87
2021/09/13 06:05:52;;;;;;;3.42;2.58;;;12.80;99.90;;;;;;5082233;28;20088;-87
2021/09/13 06:08:19;;;;;;;2.78;2.20;;;12.80;99.90;;;;;;5061623;28;20056;-87
2021/09/13 06:10:46;;;;;;;3.17;2.30;;;12.90;99.90;;;;;;5071729;28;20062;-87
2021/09/13 06:13:12;;;;;;;3.55;2.78;;;12.90;99.90;;;;;;5058307;28;20331;-88
2021/09/13 06:15:45;;;;;;;2.30;2.10;;;12.90;99.90;;;;;;5067151;28;20120;-87
2021/09/13 06:18:14;;;;;;;3.55;2.50;;;13.00;99.90;;;;;;5050679;28;20024;-88
2021/09/13 06:20:49;;;;;;;3.75;2.63;;;13.00;99.90;;;;;;5058776;28;20495;-88
2021/09/13 06:23:22;;;;;;;4.03;2.78;;;13.00;99.90;;;;;;5076353;28;20060;-89
2021/09/13 06:25:52;;;;;;;;;;;13.00;99.90;;;;;;5046981;28;20036;-88
2021/09/13 06:28:25;;;;;;;3.97;2.40;;;13.00;99.90;;;;;;5063149;28;19904;-89
2021/09/13 06:30:54;;;;;;;5.13;2.77;;;13.10;99.90;;;;;;5065171;28;20046;-88
2021/09/13 06:33:23;;;;;;;3.90;2.80;;;13.10;99.90;;;;;;5063986;28;20017;-90
2021/09/13 06:35:50;;;;;;;3.92;2.83;;;13.20;99.90;;;;;;5065520;28;20383;-89
2021/09/13 06:38:22;;;;;;;4.20;3.05;;;13.20;99.90;;;;;;5085399;28;20259;-90
2021/09/13 06:40:49;;;;;;;5.78;3.17;;;13.30;99.90;;;;;;5067283;28;20017;-89
2021/09/13 06:43:16;;;;;;;4.50;3.03;;;13.30;99.90;;;;;;5057212;28;20043;-89
2021/09/13 06:45:47;;;;;;;6.03;3.13;;;13.40;99.90;;;;;;5082860;28;20490;-88
2021/09/13 06:48:22;;;;;;;4.70;3.40;;;13.40;99.90;;;;;;5068995;28;20020;-89
2021/09/13 06:51:08;;;;;;;5.57;3.55;;;13.50;99.90;;;;;;5085946;28;20099;-90
2021/09/13 06:53:44;;;;;;;4.93;3.75;;;13.60;99.90;;;;;;5074075;28;20078;-89
2021/09/13 06:56:20;;;;;;;7.30;3.85;;;13.70;99.90;;;;;;5076558;28;20461;-88
2021/09/13 06:59:05;;;;;;;5.30;4.22;;;13.70;99.90;;;;;;5050422;28;20045;-89
2021/09/13 07:01:38;;;;;;;5.63;3.65;;;13.80;99.90;;;;;;5054438;28;20089;-89
2021/09/13 07:04:18;;;;;;;6.47;4.00;;;13.90;99.90;;;;;;5070536;28;20020;-89
2021/09/13 07:06:51;;;;;;;6.10;4.20;;;14.00;99.90;;;;;;5089489;28;20029;-90
2021/09/13 07:09:22;;;;;;;5.75;3.92;;;14.00;99.90;;;;;;5083101;28;20062;-89
2021/09/13 07:12:01;;;;;;;9.00;4.20;;;14.10;99.90;;;;;;5076150;28;20025;-87
2021/09/13 07:14:31;;;;;;;4.88;3.88;;;14.20;99.90;;;;;;5087231;28;20064;-88
2021/09/13 07:17:00;;;;;;;5.18;3.97;;;14.20;99.90;;;;;;5049039;28;20037;-88
2021/09/13 07:19:31;;;;;;;5.68;4.00;;;14.30;99.90;;;;;;5075036;28;20384;-90
2021/09/13 07:22:08;;;;;;;6.32;4.57;;;14.40;99.90;;;;;;5069029;28;20036;-89
2021/09/13 07:24:43;;;;;;;6.13;4.57;;;14.40;99.90;;;;;;5062271;28;20024;-88
2021/09/13 07:27:16;;;;;;;6.65;4.57;;;14.50;99.90;;;;;;5056466;28;20033;-88
2021/09/13 07:29:47;;;;;;;7.55;5.13;;;14.60;99.90;;;;;;5076477;28;20074;-88
2021/09/13 07:32:22;;;;;;;7.30;4.63;;;14.70;99.90;;;;;;5064134;28;20017;-88
2021/09/13 07:34:52;;;;;;;6.15;4.35;;;14.80;99.90;;;;;;5051658;28;20037;-88
2021/09/13 07:37:31;;;;;;;7.25;4.22;;;14.90;99.90;;;;;;5070772;28;20030;-87
2021/09/13 07:40:22;;;;;;;5.78;4.28;;;15.00;99.90;;;;;;5064669;28;20032;-88
2021/09/13 07:42:51;;;;;;;;;;;15.10;99.90;;;;;;5050226;28;20033;-88
2021/09/13 07:45:35;;;;;;;5.30;3.92;;;15.10;99.90;;;;;;5063973;28;19992;-88
2021/09/13 07:48:22;;;;;;;6.72;4.50;;;15.20;99.90;;;;;;5063032;28;20044;-88
2021/09/13 07:50:51;;;;;;;6.60;4.45;;;15.20;99.90;;;;;;5063798;28;20471;-88
2021/09/13 07:53:18;;;;;;;7.45;5.00;;;15.30;99.90;;;;;;5066210;28;20365;-89
2021/09/13 07:55:44;;;;;;;7.63;5.90;;;15.40;99.90;;;;;;5068649;28;20052;-89
2021/09/13 07:58:11;;;;;;;10.85;5.65;;;15.50;99.90;;;;;;5048068;28;20041;-89
2021/09/13 08:00:38;;;;;;;10.27;5.20;;;15.60;99.90;;;;;;5066383;28;20419;-89
2021/09/13 08:03:04;;;;;;;7.95;5.20;;;15.70;99.90;;;;;;5065325;28;20079;-90
2021/09/13 08:05:35;;;;;;;9.05;5.63;;;15.80;99.90;;;;;;5064150;28;20025;-89
2021/09/13 08:08:01;;;;;;;6.38;4.57;;;15.90;99.90;;;;;;5073599;28;20043;-88
2021/09/13 08:10:29;;;;;;;6.50;4.18;;;16.00;99.90;;;;;;5057626;28;20020;-88
2021/09/13 08:13:02;;;;;;;6.93;4.28;;;16.10;99.90;;;;;;5058691;28;20489;-88
2021/09/13 08:15:38;;;;;;;6.22;4.40;;;16.20;99.90;;;;;;5067720;28;20074;-89
2021/09/13 08:18:05;;;;;;;6.18;4.15;;;16.30;99.90;;;;;;5066059;28;20384;-89
2021/09/13 08:20:31;;;;;;;7.22;4.22;;;16.40;99.90;;;;;;5056583;28;20431;-88
2021/09/13 08:23:06;;;;;;;8.48;4.45;;;16.50;99.90;;;;;;5070234;28;20024;-88
2021/09/13 08:25:32;;;;;;;6.53;4.15;;;16.80;99.90;;;;;;5060469;28;20472;-88
2021/09/13 08:27:59;;;;;;;6.18;3.80;;;17.00;99.90;;;;;;5047048;28;20384;-88
2021/09/13 08:30:26;;;;;;;10.70;5.60;;;17.20;99.90;;;;;;5068774;28;20021;-89
2021/09/13 08:32:53;;;;;;;9.93;6.47;;;17.40;99.90;;;;;;5068191;28;20376;-88
2021/09/13 08:35:20;;;;;;;7.70;5.38;;;17.40;99.90;;;;;;5063234;28;20374;-88
2021/09/13 08:37:46;;;;;;;9.25;4.65;;;17.40;99.90;;;;;;5065973;28;20017;-89
2021/09/13 08:40:12;;;;;;;7.65;4.47;;;17.50;99.90;;;;;;5065516;28;20031;-89
2021/09/13 08:42:48;;;;;;;4.97;3.67;;;17.60;99.90;;;;;;5068730;28;20083;-89
2021/09/13 08:45:32;;;;;;;6.82;4.20;;;17.80;99.90;;;;;;5059334;28;20039;-89
2021/09/13 08:48:16;;;;;;;7.05;4.25;;;18.00;99.90;;;;;;5059381;28;20039;-88
2021/09/13 08:53:16;;;;;;;6.07;4.13;;;18.30;99.90;;;;;;5065699;28;20025;-87
2021/09/13 08:55:44;;;;;;;6.55;4.40;;;18.30;99.90;;;;;;5055608;28;20024;-88
2021/09/13 08:58:19;;;;;;;5.50;3.33;;;18.30;99.90;;;;;;5049480;28;20048;-88
2021/09/13 09:00:45;;;;;;;5.07;2.70;;;18.30;99.90;;;;;;5054801;28;20104;-88
2021/09/13 09:03:13;;;;;;;5.93;2.97;;;18.30;99.90;;;;;;5061407;28;20028;-88
2021/09/13 09:05:47;;;;;;;4.25;2.70;;;18.30;99.90;;;;;;5060711;28;20021;-89
2021/09/13 09:08:37;;;;;;;4.32;2.90;;;18.30;99.90;;;;;;5072356;28;20038;-88
2021/09/13 09:11:07;;;;;;;3.90;2.15;;;18.30;99.90;;;;;;5052376;28;20040;-87
2021/09/13 09:13:41;;;;;;;4.32;1.85;;;18.40;99.90;;;;;;5042517;28;20542;-87
2021/09/13 09:16:07;;;;;;;2.63;1.60;;;18.50;99.90;;;;;;5059982;28;20080;-88
2021/09/13 09:19:00;;;;;;;2.67;1.70;;;18.50;99.90;;;;;;5052697;28;20051;-87
2021/09/13 09:21:31;;;;;;;2.60;1.23;;;18.70;99.90;;;;;;5054492;28;20055;-87
2021/09/13 09:24:08;;;;;;;2.58;1.20;;;18.80;99.90;;;;;;5062721;28;20426;-86
2021/09/13 09:26:34;;;;;;;3.50;1.15;;;19.00;99.90;;;;;;5067699;28;20013;-88
2021/09/13 09:29:03;;;;;;;1.83;1.10;;;19.10;99.90;;;;;;5055552;28;20144;-87
2021/09/13 09:31:59;;;;;;;1.48;1.00;;;19.20;99.90;;;;;;5050955;28;20066;-87
2021/09/13 09:34:40;;;;;;;1.83;1.15;;;19.20;99.90;;;;;;5056135;28;20043;-87
2021/09/13 09:37:12;;;;;;;3.05;1.10;;;19.30;99.90;;;;;;5055065;28;20024;-90
2021/09/13 09:39:48;;;;;;;1.98;0.73;;;19.40;99.90;;;;;;5063402;28;20033;-89
2021/09/13 09:42:27;;;;;;;1.77;0.70;;;19.60;99.90;;;;;;5061877;28;20032;-90
2021/09/13 09:44:54;;;;;;;2.35;0.90;;;19.70;99.90;;;;;;5061254;28;20025;-89
2021/09/13 09:47:21;;;;;;;1.42;0.77;;;19.80;99.90;;;;;;5061142;28;20029;-89
2021/09/13 09:49:51;;;;;;;3.38;0.90;;;19.90;99.90;;;;;;5064328;28;20109;-89
2021/09/13 09:52:34;;;;;;;2.97;0.95;;;20.10;99.90;;;;;;5063030;28;20067;-89
2021/09/13 09:55:19;;;;;;;1.30;0.80;;;20.20;99.90;;;;;;5062931;28;20435;-89
2021/09/13 09:58:14;;;;;;;1.63;0.63;;;20.30;99.90;;;;;;5060836;28;20069;-89
2021/09/13 10:01:03;;;;;;;0.93;0.70;;;20.40;99.90;;;;;;5069306;28;20025;-89
2021/09/13 10:03:34;;;;;;;1.30;0.77;;;20.50;99.90;;;;;;5071073;28;20017;-89
2021/09/13 10:06:02;;;;;;;1.50;0.70;;;20.60;99.90;;;;;;5061629;28;20037;-89
2021/09/13 10:08:33;;;;;;;1.23;0.80;;;20.70;99.90;;;;;;5066715;28;20052;-89
2021/09/13 10:10:59;;;;;;;1.40;0.70;;;20.80;99.90;;;;;;5064724;28;20048;-89
2021/09/13 10:13:26;;;;;;;2.05;0.60;;;20.80;99.90;;;;;;5063595;28;20043;-89
2021/09/13 10:15:51;;;;;;;0.73;0.57;;;21.00;99.90;;;;;;5059548;28;20139;-90
2021/09/13 10:18:42;;;;;;;1.73;0.60;;;21.20;99.90;;;;;;5065799;28;20100;-90
2021/09/13 10:21:10;;;;;;;0.93;0.50;;;21.30;99.90;;;;;;5066573;28;20079;-89
2021/09/13 10:23:53;;;;;;;1.38;0.52;;;21.40;99.90;;;;;;5048846;28;20045;-89
2021/09/13 10:26:20;;;;;;;1.00;0.50;;;22.00;99.90;;;;;;5068792;28;20029;-90
2021/09/13 10:29:04;;;;;;;0.98;0.50;;;22.40;99.90;;;;;;5057525;28;20029;-90
2021/09/13 10:31:42;;;;;;;1.10;0.52;;;22.90;99.90;;;;;;5068843;28;20044;-91
2021/09/13 10:34:31;;;;;;;2.38;0.60;;;23.80;99.90;;;;;;5067701;28;20020;-91
2021/09/13 10:37:29;;;;;;;1.20;0.50;;;24.90;99.90;;;;;;5042862;28;20033;-92
2021/09/13 10:40:01;;;;;;;1.65;0.70;;;25.50;99.90;;;;;;5071752;28;20117;-91
2021/09/13 10:42:44;;;;;;;2.28;0.52;;;25.90;99.90;;;;;;5075384;28;20477;-91
2021/09/13 10:45:25;;;;;;;2.22;0.70;;;26.50;99.90;;;;;;5059981;28;20032;-89
2021/09/13 10:47:59;;;;;;;1.90;0.75;;;26.60;99.90;;;;;;5066398;28;20033;-90
2021/09/13 10:50:58;;;;;;;2.15;0.77;;;26.10;99.90;;;;;;5072215;28;20127;-91
2021/09/13 10:53:49;;;;;;;2.22;0.77;;;25.70;99.90;;;;;;5061942;28;20052;-90
2021/09/13 10:56:25;;;;;;;2.28;0.90;;;25.20;99.90;;;;;;5063616;28;20037;-90
2021/09/13 10:58:54;;;;;;;;;;;24.60;99.90;;;;;;5055423;28;20048;-90
2021/09/13 11:01:28;;;;;;;2.72;0.98;;;24.10;99.90;;;;;;5060900;28;19909;-89
2021/09/13 11:04:27;;;;;;;1.48;0.75;;;23.90;99.90;;;;;;5065233;28;20029;-90
2021/09/13 11:07:07;;;;;;;2.42;0.80;;;23.60;99.90;;;;;;5055947;28;20061;-91
2021/09/13 11:09:34;;;;;;;1.98;0.80;;;23.30;99.90;;;;;;5066502;28;20086;-90
2021/09/13 11:12:01;;;;;;;2.30;0.80;;;22.90;99.90;;;;;;5037499;28;20033;-90
2021/09/13 11:14:51;;;;;;;1.10;0.73;;;22.70;99.90;;;;;;5067927;28;20111;-91
2021/09/13 11:17:22;;;;;;;1.92;0.80;;;22.50;99.90;;;;;;5058942;28;20413;-90
2021/09/13 11:19:49;;;;;;;1.27;0.60;;;22.30;99.90;;;;;;5066922;28;20064;-89
2021/09/13 11:22:17;;;;;;;1.40;0.60;;;22.20;99.90;;;;;;5066514;28;20438;-90
2021/09/13 11:24:44;;;;;;;1.25;0.65;;;22.20;99.90;;;;;;5058139;28;20025;-89
2021/09/13 11:27:13;;;;;;;2.70;0.90;;;22.20;99.90;;;;;;5053327;28;20033;-88
2021/09/13 11:29:49;;;;;;;1.88;0.63;;;22.10;99.90;;;;;;5055833;28;20025;-89
2021/09/13 11:32:16;;;;;;;;;;;22.00;99.90;;;;;;5067447;28;20033;-88
2021/09/13 11:34:52;;;;;;;1.70;0.60;;;21.70;99.90;;;;;;5042209;28;20015;-88
2021/09/13 11:37:32;;;;;;;1.50;0.55;;;21.60;99.90;;;;;;5060438;28;20028;-88
2021/09/13 11:40:02;;;;;;;1.30;0.60;;;21.60;99.90;;;;;;5063650;28;20032;-89
2021/09/13 11:42:35;;;;;;;3.10;0.60;;;21.50;99.90;;;;;;5048124;28;20381;-88
2021/09/13 11:45:16;;;;;;;2.70;0.70;;;21.40;99.90;;;;;;5057560;28;20036;-89
2021/09/13 11:47:45;;;;;;;1.67;0.80;;;21.30;99.90;;;;;;5066618;28;20033;-88
2021/09/13 11:50:12;;;;;;;2.40;0.60;;;21.30;99.90;;;;;;5061514;28;20052;-88
2021/09/13 11:52:42;;;;;;;0.95;0.43;;;21.30;99.90;;;;;;5036555;28;20065;-89
2021/09/13 11:55:17;;;;;;;1.80;0.70;;;21.40;99.90;;;;;;5058500;28;20404;-88
2021/09/13 11:57:55;;;;;;;1.70;0.70;;;21.40;99.90;;;;;;5064224;28;20052;-88
2021/09/13 12:00:35;;;;;;;1.52;0.70;;;21.60;99.90;;;;;;5046989;28;20044;-89
2021/09/13 12:03:07;;;;;;;2.30;0.75;;;21.70;99.90;;;;;;5066473;28;20024;-89
2021/09/13 12:05:40;;;;;;;1.67;0.50;;;21.90;99.90;;;;;;5060043;28;20024;-89
2021/09/13 12:08:12;;;;;;;0.65;0.52;;;22.00;99.90;;;;;;5059832;28;20033;-89
2021/09/13 12:10:44;;;;;;;2.20;0.55;;;22.20;99.90;;;;;;5064699;28;20115;-89
2021/09/13 12:13:23;;;;;;;3.53;1.00;;;22.30;99.90;;;;;;5048260;28;20025;-89
2021/09/13 12:15:55;;;;;;;3.13;0.80;;;22.30;99.90;;;;;;5063514;28;20036;-90
2021/09/13 12:18:23;;;;;;;2.05;0.70;;;22.20;99.90;;;;;;5060694;28;20384;-91
2021/09/13 12:20:52;;;;;;;1.15;0.60;;;22.00;99.90;;;;;;5042826;28;20413;-90
2021/09/13 12:23:32;;;;;;;1.13;0.60;;;22.00;99.90;;;;;;5060806;28;20068;-90
2021/09/13 12:26:06;;;;;;;1.50;0.60;;;22.10;99.90;;;;;;5068438;28;20500;-88
2021/09/13 12:28:34;;;;;;;1.35;0.60;;;22.20;99.90;;;;;;5056300;28;20044;-88
2021/09/13 12:31:05;;;;;;;1.70;0.57;;;22.30;99.90;;;;;;5064235;28;20028;-89
2021/09/13 12:33:44;;;;;;;1.02;0.70;;;22.50;99.90;;;;;;5059185;28;20020;-88
2021/09/13 12:36:21;;;;;;;1.35;0.60;;;22.70;99.90;;;;;;5058152;28;20037;-90
2021/09/13 12:38:54;;;;;;;1.80;0.70;;;22.90;99.90;;;;;;5067608;28;20070;-89
2021/09/13 12:41:39;;;;;;;1.58;0.63;;;23.00;99.90;;;;;;5062955;28;20020;-89
2021/09/13 12:44:26;;;;;;;1.80;0.70;;;23.40;99.90;;;;;;5059953;28;20028;-89
2021/09/13 12:46:57;;;;;;;1.50;0.68;;;23.90;99.90;;;;;;5065662;28;20045;-89
2021/09/13 12:49:31;;;;;;;3.15;0.65;;;24.50;99.90;;;;;;5056091;28;20067;-89
2021/09/13 12:52:01;;;;;;;1.23;0.60;;;25.00;99.90;;;;;;5060830;28;20033;-90
2021/09/13 12:54:34;;;;;;;1.40;0.60;;;25.50;99.90;;;;;;5064969;28;20067;-89
2021/09/13 12:57:00;;;;;;;;;;;26.00;99.90;;;;;;5055314;28;20115;-90
2021/09/13 12:59:54;;;;;;;1.85;0.60;;;26.10;99.90;;;;;;5091191;28;19924;-90
2021/09/13 13:02:23;;;;;;;1.27;0.50;;;26.40;99.90;;;;;;5073002;28;20429;-88
2021/09/13 13:04:52;;;;;;;1.52;0.60;;;26.30;99.90;;;;;;5057389;28;20533;-90
2021/09/13 13:07:19;;;;;;;1.88;0.50;;;26.30;99.90;;;;;;5068768;28;20036;-89
2021/09/13 13:09:45;;;;;;;1.42;0.52;;;26.10;99.90;;;;;;5061930;28;20372;-89
2021/09/13 13:12:13;;;;;;;2.53;0.50;;;26.20;99.90;;;;;;5061521;28;20035;-88